»·PEaware :: CREEP38 KEND-KEND

CREEP38 :: KEND-KEND

FLIGHT INFORMATION

Flight Status: Arrived
Operator: Unknown
More flights by this operator :: More flights under this callsign
Pilot: A. B. (21555)
Aircraft: BEECH AIRCRAFT T-6A TEXAN
(TEX2)
More flights by this aircraft type
Origin: KEND Vance AFB
United States
Destination: KEND Vance AFB
United States
More flights between these airports :: More routes between these airports
Route:
File this flight plan on PilotEdge
Remarks:
Altitude:
(Current/Filed)
null
Speed:
(Current/Filed)
0kts
Departed: 08-Jan-21 06:14 AM
Arrived: 08-Jan-21 06:43 AM
Distance/Time
Traveled:
1nm/0:28
Distance/Time
To Go:
Arrived

Flight Plot

Page will automatically refresh every two minutes.

Flight plan parsing failed; only flown route is shown


Map Options




Map Legend


Flown Route
Filed Route
Departure Airport
Arrival Airport
Navaid (VOR, NDB)
Fix

Horizontal Profiles

Position Reports

Time Latitude Longitude Heading Altitude Ground
Speed
08-Jan-21 06:01 36.347050 -97.910131 216 1279ft 0kts
08-Jan-21 06:02 36.347050 -97.910131 216 1279ft 0kts
08-Jan-21 06:03 36.347050 -97.910131 216 1279ft 0kts
08-Jan-21 06:04 36.347050 -97.910131 216 1279ft 0kts
08-Jan-21 06:05 36.347050 -97.910131 216 1279ft 0kts
08-Jan-21 06:06 36.347050 -97.910131 216 1279ft 0kts
08-Jan-21 06:07 36.347050 -97.910131 216 1279ft 0kts
08-Jan-21 06:08 36.347050 -97.910131 216 1279ft 0kts
08-Jan-21 06:09 36.347050 -97.910131 216 1279ft 0kts
08-Jan-21 06:10 36.347050 -97.910131 216 1279ft 0kts
08-Jan-21 06:11 36.347050 -97.910131 216 1279ft 0kts
08-Jan-21 06:12 36.347049 -97.910132 216 1279ft 0kts
08-Jan-21 06:13 36.337078 -97.911008 178 1399ft 133kts
08-Jan-21 06:14 36.289970 -97.901984 156 3545ft 191kts
08-Jan-21 06:15 36.236739 -97.879438 135 5180ft 245kts
08-Jan-21 06:16 36.262156 -97.827068 337 5063ft 245kts
08-Jan-21 06:17 36.325968 -97.857499 335 5037ft 243kts
08-Jan-21 06:18 36.387498 -97.892970 329 5002ft 243kts
08-Jan-21 06:19 36.450809 -97.908722 358 6384ft 223kts
08-Jan-21 06:20 36.507780 -97.909283 358 9609ft 205kts
08-Jan-21 06:21 36.561613 -97.910622 2 13013ft 207kts
08-Jan-21 06:22 36.617310 -97.871948 55 12986ft 267kts
08-Jan-21 06:23 36.656785 -97.784520 65 12139ft 294kts
08-Jan-21 06:24 36.688578 -97.694773 58 11101ft 279kts
08-Jan-21 06:25 36.746957 -97.660528 320 10017ft 251kts
08-Jan-21 06:26 36.721133 -97.662900 151 9705ft 216kts
08-Jan-21 06:27 36.686164 -97.698318 284 9927ft 194kts
08-Jan-21 06:28 36.706819 -97.671555 124 9616ft 197kts
08-Jan-21 06:29 36.668890 -97.685456 304 9434ft 196kts
08-Jan-21 06:30 36.708810 -97.667508 85 9339ft 195kts
08-Jan-21 06:31 36.690004 -97.677846 286 8606ft 206kts
08-Jan-21 06:32 36.682268 -97.758379 256 6830ft 262kts
08-Jan-21 06:33 36.629312 -97.805816 186 5674ft 243kts
08-Jan-21 06:34 36.561636 -97.800425 181 3580ft 250kts
08-Jan-21 06:35 36.507509 -97.832363 236 2432ft 212kts
08-Jan-21 06:36 36.485169 -97.893629 229 2274ft 189kts
08-Jan-21 06:37 36.434174 -97.907401 180 2285ft 201kts
08-Jan-21 06:38 36.377859 -97.910070 182 2252ft 208kts
08-Jan-21 06:39 36.348025 -97.896729 355 2273ft 178kts
08-Jan-21 06:40 36.361286 -97.910486 184 1564ft 122kts
08-Jan-21 06:41 36.335590 -97.910989 183 1290ft 45kts
08-Jan-21 06:42 36.334772 -97.909157 336 1293ft 7kts
08-Jan-21 06:43 36.336702 -97.909228 347 1292ft 8kts
08-Jan-21 06:44 36.336955 -97.909081 73 1292ft 0kts
08-Jan-21 06:45 36.347071 -97.909670 216 1279ft 0kts
08-Jan-21 06:46 36.347071 -97.909670 216 1279ft 0kts
08-Jan-21 06:47 36.347071 -97.909670 216 1279ft 0kts
08-Jan-21 06:48 36.347071 -97.909670 216 1279ft 0kts
08-Jan-21 06:49 36.347071 -97.909670 216 1279ft 0kts
08-Jan-21 06:50 36.347071 -97.909670 216 1279ft 0kts
08-Jan-21 06:51 36.347071 -97.909670 216 1279ft 0kts
08-Jan-21 06:52 36.347071 -97.909670 216 1279ft 0kts
08-Jan-21 06:53 36.347071 -97.909670 216 1279ft 0kts
08-Jan-21 06:54 36.347071 -97.909670 216 1279ft 0kts
08-Jan-21 06:55 36.347071 -97.909670 216 1279ft 0kts
08-Jan-21 06:56 36.347071 -97.909670 216 1279ft 0kts

Navigation Log

Ident Type
Flight plan parsing failed, navigation log unavailable